createdAt,value
2018-08-23T00:01:26.531Z,21.60
2018-08-23T00:03:56.871Z,21.50
2018-08-23T00:06:25.803Z,21.50
2018-08-23T00:08:57.420Z,21.40
2018-08-23T00:11:28.697Z,21.30
2018-08-23T00:13:58.042Z,21.40
2018-08-23T00:16:51.772Z,21.40
2018-08-23T00:19:20.640Z,21.40
2018-08-23T00:21:51.425Z,21.40
2018-08-23T00:24:22.822Z,21.30
2018-08-23T00:26:55.844Z,21.30
2018-08-23T00:29:27.572Z,21.20
2018-08-23T00:37:03.201Z,21.20
2018-08-23T00:39:32.150Z,21.20
2018-08-23T00:47:03.505Z,21.20
2018-08-23T00:49:33.700Z,21.20
2018-08-23T00:52:02.341Z,21.10
2018-08-23T00:54:31.043Z,21.10
2018-08-23T00:57:00.191Z,21.10
2018-08-23T00:59:29.627Z,21.00
2018-08-23T01:02:07.722Z,21.10
2018-08-23T01:04:45.350Z,21.00
2018-08-23T01:07:18.459Z,20.90
2018-08-23T01:09:48.907Z,20.90
2018-08-23T01:12:19.778Z,20.90
2018-08-23T01:14:51.013Z,21.00
2018-08-23T01:17:19.798Z,20.90
2018-08-23T01:19:59.937Z,20.90
2018-08-23T01:22:28.504Z,20.90
2018-08-23T01:25:00.113Z,20.90
2018-08-23T01:27:34.269Z,20.90
2018-08-23T01:30:03.516Z,20.90
2018-08-23T01:32:33.481Z,20.90
2018-08-23T01:35:02.418Z,20.90
2018-08-23T01:37:38.568Z,20.90
2018-08-23T01:40:09.948Z,20.90
2018-08-23T01:42:40.075Z,20.80
2018-08-23T01:45:11.094Z,20.80
2018-08-23T01:47:45.352Z,20.80
2018-08-23T01:50:14.758Z,20.70
2018-08-23T01:52:46.751Z,20.70
2018-08-23T01:55:16.063Z,20.70
2018-08-23T01:57:45.167Z,20.70
2018-08-23T02:00:14.830Z,20.60
2018-08-23T02:02:45.446Z,20.60
2018-08-23T02:05:14.910Z,20.50
2018-08-23T02:07:43.778Z,20.50
2018-08-23T02:10:13.234Z,20.50
2018-08-23T02:12:46.317Z,20.60
2018-08-23T02:15:15.304Z,20.50
2018-08-23T02:17:48.379Z,20.30
2018-08-23T02:20:18.094Z,20.40
2018-08-23T02:22:47.016Z,20.40
2018-08-23T02:25:18.231Z,20.60
2018-08-23T02:28:10.799Z,20.40
2018-08-23T02:30:50.125Z,20.50
2018-08-23T02:33:19.000Z,20.40
2018-08-23T02:36:06.057Z,20.50
2018-08-23T02:38:35.842Z,20.50
2018-08-23T02:41:04.923Z,20.50
2018-08-23T02:43:33.463Z,20.50
2018-08-23T02:46:03.307Z,20.50
2018-08-23T02:48:32.304Z,20.50
2018-08-23T02:51:01.182Z,20.50
2018-08-23T02:53:38.047Z,20.50
2018-08-23T02:56:10.449Z,20.40
2018-08-23T02:58:50.413Z,20.40
2018-08-23T03:01:19.291Z,20.40
2018-08-23T03:04:00.745Z,20.50
2018-08-23T03:06:35.257Z,20.30
2018-08-23T03:09:04.911Z,20.30
2018-08-23T03:11:35.945Z,20.30
2018-08-23T03:14:04.971Z,20.30
2018-08-23T03:17:31.183Z,20.30
2018-08-23T03:20:01.198Z,20.30
2018-08-23T03:22:31.202Z,20.30
2018-08-23T03:25:01.987Z,20.30
2018-08-23T03:27:31.953Z,20.30
2018-08-23T03:30:02.015Z,20.30
2018-08-23T03:32:31.004Z,20.30
2018-08-23T03:35:00.555Z,20.20
2018-08-23T03:37:29.246Z,20.20
2018-08-23T03:39:58.730Z,20.20
2018-08-23T03:42:28.088Z,20.20
2018-08-23T03:44:57.847Z,20.10
2018-08-23T03:47:27.425Z,20.10
2018-08-23T03:49:56.118Z,20.10
2018-08-23T03:52:46.002Z,20.00
2018-08-23T03:55:17.678Z,20.00
2018-08-23T03:57:54.173Z,20.00
2018-08-23T04:00:28.574Z,20.00
2018-08-23T04:02:59.854Z,20.00
2018-08-23T04:05:29.135Z,20.00
2018-08-23T04:07:58.048Z,20.00
2018-08-23T04:10:26.990Z,20.00
2018-08-23T04:12:56.215Z,19.90
2018-08-23T04:15:28.579Z,19.90
2018-08-23T04:17:57.797Z,19.90
2018-08-23T04:20:27.354Z,19.90
2018-08-23T04:22:56.303Z,19.90
2018-08-23T04:25:26.249Z,19.90
2018-08-23T04:27:55.163Z,19.90
2018-08-23T04:30:24.095Z,19.90
2018-08-23T04:32:52.821Z,19.90
2018-08-23T04:35:27.539Z,19.90
2018-08-23T04:37:56.396Z,19.90
2018-08-23T04:40:25.173Z,19.90
2018-08-23T04:42:53.932Z,19.90
2018-08-23T04:45:25.452Z,19.90
2018-08-23T04:47:59.580Z,19.90
2018-08-23T04:50:28.158Z,19.90
2018-08-23T04:52:56.647Z,19.90
2018-08-23T04:55:26.185Z,19.90
2018-08-23T04:57:55.624Z,19.90
2018-08-23T05:00:24.898Z,19.80
2018-08-23T05:02:54.130Z,19.90
2018-08-23T05:05:23.239Z,19.80
2018-08-23T05:07:51.928Z,19.80
2018-08-23T05:10:20.515Z,19.90
2018-08-23T05:12:49.402Z,19.90
2018-08-23T05:15:17.971Z,20.00
2018-08-23T05:17:46.645Z,19.90
2018-08-23T05:20:15.853Z,20.00
2018-08-23T05:22:56.161Z,20.00
2018-08-23T05:25:25.637Z,20.10
2018-08-23T05:28:07.031Z,20.10
2018-08-23T05:30:35.901Z,20.20
2018-08-23T05:33:12.810Z,20.30
2018-08-23T05:35:41.562Z,20.30
2018-08-23T05:38:11.046Z,20.30
2018-08-23T05:40:46.130Z,20.20
2018-08-23T05:43:15.532Z,20.30
2018-08-23T05:46:02.744Z,20.40
2018-08-23T05:48:32.288Z,20.40
2018-08-23T05:51:04.250Z,20.50
2018-08-23T05:53:32.911Z,20.50
2018-08-23T05:56:03.451Z,20.50
2018-08-23T05:58:34.427Z,20.50
2018-08-23T06:01:04.753Z,20.50
2018-08-23T06:03:33.712Z,20.50
2018-08-23T06:06:02.432Z,20.50
2018-08-23T06:08:34.354Z,20.60
2018-08-23T06:11:07.536Z,20.70
2018-08-23T06:13:36.552Z,20.80
2018-08-23T06:16:05.600Z,20.70
2018-08-23T06:18:34.405Z,20.80
2018-08-23T06:21:04.832Z,20.80
2018-08-23T06:24:00.441Z,20.80
2018-08-23T06:26:33.179Z,20.90
2018-08-23T06:29:02.024Z,20.90
2018-08-23T06:31:30.899Z,21.00
2018-08-23T06:33:59.923Z,21.10
2018-08-23T06:36:29.226Z,21.10
2018-08-23T06:39:00.999Z,21.10
2018-08-23T06:41:30.045Z,21.20
2018-08-23T06:43:58.887Z,21.20
2018-08-23T06:46:27.820Z,21.30
2018-08-23T06:53:53.438Z,21.40
2018-08-23T06:56:22.559Z,21.50
2018-08-23T06:58:51.687Z,21.50
2018-08-23T07:01:34.276Z,21.60
2018-08-23T07:04:04.853Z,21.60
2018-08-23T07:06:34.703Z,21.70
2018-08-23T07:09:05.565Z,21.60
2018-08-23T07:11:34.531Z,21.70
2018-08-23T07:14:08.456Z,21.70
2018-08-23T07:16:37.053Z,21.70
2018-08-23T07:19:15.772Z,21.70
2018-08-23T07:21:44.638Z,21.80
2018-08-23T07:24:45.849Z,21.80
2018-08-23T07:27:16.953Z,21.70
2018-08-23T07:29:48.260Z,21.70
2018-08-23T07:32:19.812Z,21.80
2018-08-23T07:35:02.981Z,21.90
2018-08-23T07:37:33.514Z,21.70
2018-08-23T07:40:07.506Z,21.90
2018-08-23T07:42:37.168Z,22.00
2018-08-23T07:45:06.529Z,22.10
2018-08-23T07:47:37.831Z,22.20
2018-08-23T07:50:07.693Z,22.30
2018-08-23T07:52:37.389Z,22.40
2018-08-23T07:55:09.753Z,22.50
2018-08-23T07:57:39.984Z,22.60
2018-08-23T08:00:41.459Z,22.80
2018-08-23T08:03:11.467Z,22.80
2018-08-23T08:05:42.202Z,23.00
2018-08-23T08:08:12.220Z,23.10
2018-08-23T08:10:42.494Z,23.20
2018-08-23T08:13:11.370Z,23.40
2018-08-23T08:15:40.371Z,23.50
2018-08-23T08:18:26.723Z,23.60
2018-08-23T08:21:03.959Z,23.70
2018-08-23T08:23:33.745Z,23.80
2018-08-23T08:26:02.773Z,23.90
2018-08-23T08:28:31.876Z,24.00
2018-08-23T08:31:01.922Z,24.20
2018-08-23T08:33:34.895Z,24.40
2018-08-23T08:36:04.723Z,24.60
2018-08-23T08:38:34.126Z,24.80
2018-08-23T08:41:03.185Z,25.00
2018-08-23T08:43:32.248Z,25.10
2018-08-23T08:46:01.162Z,25.20
2018-08-23T08:48:30.674Z,25.30
2018-08-23T08:51:16.018Z,25.30
2018-08-23T08:53:45.538Z,25.30
2018-08-23T08:56:14.982Z,25.40
2018-08-23T08:58:44.190Z,25.30
2018-08-23T09:01:13.437Z,25.20
2018-08-23T09:03:42.285Z,25.10
2018-08-23T09:06:13.638Z,25.10
2018-08-23T09:08:42.558Z,25.00
2018-08-23T09:11:11.356Z,25.00
2018-08-23T09:13:45.440Z,25.10
2018-08-23T09:16:14.426Z,25.20
2018-08-23T09:18:45.295Z,25.30
2018-08-23T09:21:14.049Z,25.30
2018-08-23T09:23:42.878Z,25.30
2018-08-23T09:26:12.071Z,25.30
2018-08-23T09:28:41.689Z,25.40
2018-08-23T09:31:10.729Z,25.60
2018-08-23T09:33:39.706Z,25.60
2018-08-23T09:36:08.680Z,25.70
2018-08-23T09:38:37.814Z,25.80
2018-08-23T09:41:08.579Z,26.00
2018-08-23T09:43:37.514Z,26.10
2018-08-23T09:46:06.450Z,26.30
2018-08-23T09:48:35.383Z,26.20
2018-08-23T09:51:16.387Z,26.20
2018-08-23T09:53:45.479Z,26.30
2018-08-23T09:56:30.138Z,26.30
2018-08-23T09:58:59.129Z,26.30
2018-08-23T10:01:32.868Z,26.50
2018-08-23T10:04:07.198Z,26.60
2018-08-23T10:06:41.414Z,26.70
2018-08-23T10:09:27.280Z,26.80
2018-08-23T10:12:01.306Z,27.00
2018-08-23T10:14:35.368Z,27.10
2018-08-23T10:18:08.411Z,26.90
2018-08-23T10:20:45.663Z,27.00
2018-08-23T10:23:19.823Z,26.90
2018-08-23T10:25:55.045Z,26.90
2018-08-23T10:28:26.072Z,27.10
2018-08-23T10:30:55.770Z,27.10
2018-08-23T10:33:27.669Z,27.30
2018-08-23T10:35:57.833Z,27.40
2018-08-23T10:38:28.075Z,27.60
2018-08-23T10:41:01.812Z,27.70
2018-08-23T10:43:35.917Z,27.70
2018-08-23T10:46:05.712Z,27.80
2018-08-23T10:48:34.410Z,27.90
2018-08-23T10:51:03.256Z,28.00
2018-08-23T10:53:43.265Z,28.00
2018-08-23T10:56:11.817Z,28.10
2018-08-23T10:58:41.370Z,28.10
2018-08-23T11:01:09.951Z,28.20
2018-08-23T11:03:38.476Z,28.30
2018-08-23T11:06:07.206Z,28.40
2018-08-23T11:08:38.749Z,28.50
2018-08-23T11:11:12.887Z,28.60
2018-08-23T11:13:48.018Z,28.50
2018-08-23T11:16:22.437Z,28.80
2018-08-23T11:18:56.812Z,29.00
2018-08-23T11:21:25.830Z,29.10
2018-08-23T11:23:54.984Z,29.30
2018-08-23T11:26:25.192Z,29.10
2018-08-23T11:28:54.002Z,28.90
2018-08-23T11:31:28.783Z,28.60
2018-08-23T11:33:57.501Z,28.30
2018-08-23T11:36:26.730Z,28.00
2018-08-23T11:38:55.974Z,27.80
2018-08-23T11:41:24.954Z,27.50
2018-08-23T11:43:53.844Z,27.30
2018-08-23T11:46:23.241Z,27.00
2018-08-23T11:48:52.096Z,26.70
2018-08-23T11:51:20.566Z,25.80
2018-08-23T11:53:49.262Z,24.50
2018-08-23T11:56:17.747Z,23.60
2018-08-23T11:58:46.559Z,22.80
2018-08-23T12:01:16.531Z,22.60
2018-08-23T12:03:45.872Z,22.10
2018-08-23T12:06:16.010Z,21.30
2018-08-23T12:08:45.233Z,21.00
2018-08-23T12:11:14.219Z,21.10
2018-08-23T12:13:46.361Z,20.90
2018-08-23T12:16:15.203Z,20.40
2018-08-23T12:18:44.437Z,20.70
2018-08-23T12:21:13.517Z,20.80
2018-08-23T12:23:42.379Z,20.80
2018-08-23T12:26:11.274Z,20.90
2018-08-23T12:28:45.505Z,21.00
2018-08-23T12:31:14.524Z,20.90
2018-08-23T12:33:44.153Z,21.00
2018-08-23T12:36:13.466Z,20.40
2018-08-23T12:39:51.586Z,20.20
2018-08-23T12:42:25.459Z,20.60
2018-08-23T12:44:54.185Z,20.60
2018-08-23T12:47:22.823Z,20.80
2018-08-23T12:49:51.661Z,20.90
2018-08-23T12:52:20.539Z,20.80
2018-08-23T12:54:49.486Z,20.60
2018-08-23T12:57:18.887Z,20.40
2018-08-23T12:59:49.669Z,20.70
2018-08-23T13:02:19.104Z,20.90
2018-08-23T13:04:48.510Z,21.10
2018-08-23T13:07:22.066Z,21.10
2018-08-23T13:09:51.372Z,21.20
2018-08-23T13:12:20.900Z,21.20
2018-08-23T13:14:50.527Z,21.30
2018-08-23T13:17:19.500Z,21.30
2018-08-23T13:19:48.547Z,21.20
2018-08-23T13:22:24.015Z,21.20
2018-08-23T13:24:58.194Z,21.30
2018-08-23T13:27:30.476Z,21.30
2018-08-23T13:30:01.087Z,21.30
2018-08-23T13:32:30.015Z,21.30
2018-08-23T13:34:59.435Z,21.20
2018-08-23T13:37:28.172Z,21.10
2018-08-23T13:39:56.796Z,20.90
2018-08-23T13:42:25.581Z,20.80
2018-08-23T13:44:54.608Z,20.70
2018-08-23T13:47:29.245Z,20.80
2018-08-23T13:49:58.825Z,20.90
2018-08-23T13:52:31.858Z,21.00
2018-08-23T13:55:01.002Z,21.00
2018-08-23T13:57:30.245Z,21.00
2018-08-23T14:00:00.129Z,21.10
2018-08-23T14:02:29.796Z,21.10
2018-08-23T14:04:59.371Z,21.10
2018-08-23T14:07:31.042Z,21.10
2018-08-23T14:10:06.662Z,21.10
2018-08-23T14:12:36.672Z,21.20
2018-08-23T14:15:07.602Z,21.30
2018-08-23T14:17:37.413Z,21.30
2018-08-23T14:20:06.841Z,21.30
2018-08-23T14:22:36.049Z,21.30
2018-08-23T14:25:06.215Z,21.50
2018-08-23T14:27:34.963Z,21.70
2018-08-23T14:30:03.474Z,21.90
2018-08-23T14:32:32.556Z,22.00
2018-08-23T14:35:01.901Z,22.00
2018-08-23T14:37:30.681Z,22.10
2018-08-23T14:40:00.007Z,22.10
2018-08-23T14:42:28.942Z,22.10
2018-08-23T14:44:58.228Z,22.10
2018-08-23T14:47:32.585Z,22.20
2018-08-23T14:50:04.759Z,22.40
2018-08-23T14:52:33.963Z,22.40
2018-08-23T14:55:03.258Z,22.60
2018-08-23T14:57:34.240Z,22.70
2018-08-23T15:00:02.983Z,22.80
2018-08-23T15:02:31.912Z,22.80
2018-08-23T15:05:00.994Z,22.90
2018-08-23T15:07:30.284Z,23.00
2018-08-23T15:09:59.505Z,22.90
2018-08-23T15:12:28.729Z,22.80
2018-08-23T15:14:57.641Z,22.80
2018-08-23T15:17:26.357Z,22.90
2018-08-23T15:19:55.136Z,22.80
2018-08-23T15:22:23.929Z,22.80
2018-08-23T15:24:52.664Z,22.80
2018-08-23T15:27:21.176Z,22.80
2018-08-23T15:29:49.849Z,22.90
2018-08-23T15:32:19.001Z,22.90
2018-08-23T15:34:48.159Z,23.00
2018-08-23T15:37:18.099Z,23.20
2018-08-23T15:39:48.908Z,23.50
2018-08-23T15:42:18.465Z,23.60
2018-08-23T15:44:47.541Z,23.70
2018-08-23T15:47:16.527Z,23.80
2018-08-23T15:49:45.883Z,23.90
2018-08-23T15:52:16.188Z,23.60
2018-08-23T15:54:46.798Z,23.40
2018-08-23T15:57:15.701Z,23.50
2018-08-23T15:59:45.444Z,23.80
2018-08-23T16:02:14.587Z,23.60
2018-08-23T16:04:46.361Z,23.80
2018-08-23T16:07:16.358Z,24.00
2018-08-23T16:09:45.100Z,24.20
2018-08-23T16:12:13.817Z,24.20
2018-08-23T16:14:42.918Z,24.30
2018-08-23T16:17:17.012Z,24.70
2018-08-23T16:19:51.456Z,25.00
2018-08-23T16:22:20.433Z,25.20
2018-08-23T16:24:51.325Z,25.40
2018-08-23T16:29:55.259Z,26.00
2018-08-23T16:32:29.972Z,26.30
2018-08-23T16:34:59.319Z,26.40
2018-08-23T16:37:28.354Z,26.40
2018-08-23T16:39:57.418Z,26.60
2018-08-23T16:42:26.138Z,26.70
2018-08-23T16:44:55.664Z,27.10
2018-08-23T16:47:25.321Z,27.60
2018-08-23T16:49:55.087Z,28.10
2018-08-23T16:52:24.164Z,28.70
2018-08-23T16:54:55.280Z,28.70
2018-08-23T16:57:24.103Z,29.30
2018-08-23T16:59:53.403Z,29.70
2018-08-23T17:02:22.741Z,29.50
2018-08-23T17:04:52.790Z,29.50
2018-08-23T17:07:21.726Z,29.50
2018-08-23T17:09:50.700Z,29.60
2018-08-23T17:12:19.612Z,29.50
2018-08-23T17:14:48.798Z,28.20
2018-08-23T17:17:23.029Z,27.40
2018-08-23T17:19:52.477Z,26.60
2018-08-23T17:22:22.641Z,25.70
2018-08-23T17:24:52.328Z,25.20
2018-08-23T17:27:39.659Z,24.90
2018-08-23T17:30:08.848Z,24.80
2018-08-23T17:32:37.883Z,24.60
2018-08-23T17:35:08.688Z,24.40
2018-08-23T17:37:37.887Z,24.20
2018-08-23T17:40:06.693Z,24.10
2018-08-23T17:42:41.224Z,24.00
2018-08-23T17:45:10.533Z,23.90
2018-08-23T17:47:39.687Z,23.70
2018-08-23T17:55:20.302Z,23.50
2018-08-23T17:57:49.131Z,23.20
2018-08-23T18:00:18.821Z,23.10
2018-08-23T18:02:47.625Z,23.00
2018-08-23T18:05:17.777Z,23.00
2018-08-23T18:07:46.464Z,22.90
2018-08-23T18:10:15.612Z,22.80
2018-08-23T18:12:44.784Z,22.70
2018-08-23T18:15:13.819Z,22.60
2018-08-23T18:17:42.880Z,22.60
2018-08-23T18:20:12.012Z,22.60
2018-08-23T18:22:41.099Z,22.50
2018-08-23T18:25:10.162Z,22.40
2018-08-23T18:27:39.167Z,22.40
2018-08-23T18:30:08.450Z,22.40
2018-08-23T18:32:40.556Z,22.30
2018-08-23T18:35:12.377Z,22.20
2018-08-23T18:37:41.929Z,22.20
2018-08-23T18:40:11.053Z,22.20
2018-08-23T18:42:51.325Z,22.10
2018-08-23T18:45:24.992Z,22.00
2018-08-23T18:47:55.311Z,22.00
2018-08-23T18:50:24.172Z,22.00
2018-08-23T18:52:53.166Z,21.90
2018-08-23T18:55:22.019Z,21.90
2018-08-23T18:57:51.254Z,21.90
2018-08-23T19:00:20.263Z,21.80
2018-08-23T19:02:49.314Z,21.80
2018-08-23T19:05:18.542Z,21.70
2018-08-23T19:07:47.864Z,21.80
2018-08-23T19:10:17.122Z,21.60
2018-08-23T19:12:46.499Z,21.70
2018-08-23T19:15:15.465Z,21.70
2018-08-23T19:17:44.795Z,21.70
2018-08-23T19:20:16.267Z,21.70
2018-08-23T19:22:45.690Z,21.70
2018-08-23T19:25:23.437Z,21.60
2018-08-23T19:27:56.122Z,21.60
2018-08-23T19:30:29.789Z,21.60
2018-08-23T19:34:23.787Z,21.60
2018-08-23T20:53:56.969Z,21.60
2018-08-23T20:56:26.211Z,21.10
2018-08-23T20:58:55.174Z,21.10
2018-08-23T21:01:24.153Z,21.10
2018-08-23T21:03:52.994Z,21.10
2018-08-23T21:06:22.027Z,21.10
2018-08-23T21:08:51.348Z,21.00
2018-08-23T21:11:19.895Z,21.00
2018-08-23T21:13:49.728Z,21.10
2018-08-23T21:16:18.302Z,21.20
2018-08-23T21:18:47.050Z,21.20
2018-08-23T21:21:15.971Z,21.20
2018-08-23T21:23:44.765Z,21.20
2018-08-23T21:26:13.638Z,21.20
2018-08-23T21:28:42.726Z,21.20
2018-08-23T21:31:11.388Z,21.30
2018-08-23T21:33:39.888Z,21.30
2018-08-23T21:36:08.895Z,21.20
2018-08-23T21:38:37.383Z,21.30
2018-08-23T21:41:05.881Z,21.20
2018-08-23T21:43:34.328Z,21.20
2018-08-23T21:46:03.240Z,21.20
2018-08-23T21:48:32.158Z,21.20
2018-08-23T21:51:01.069Z,21.10
2018-08-23T21:53:30.049Z,21.00
2018-08-23T21:55:58.746Z,21.00
2018-08-23T21:58:27.874Z,20.90
2018-08-23T22:01:02.103Z,20.90
2018-08-23T22:03:31.011Z,21.00
2018-08-23T22:05:59.736Z,21.00
2018-08-23T22:08:28.281Z,21.00
2018-08-23T22:10:57.010Z,21.00
2018-08-23T22:13:25.833Z,21.10
2018-08-23T22:15:54.534Z,21.10
2018-08-23T22:18:23.245Z,21.10
2018-08-23T22:20:52.248Z,20.90
2018-08-23T22:23:20.967Z,20.80
2018-08-23T22:25:49.713Z,20.90
2018-08-23T22:28:18.606Z,20.90
2018-08-23T22:30:47.441Z,20.90
2018-08-23T22:33:16.169Z,20.90
2018-08-23T22:35:44.978Z,20.90
2018-08-23T22:38:13.774Z,20.80
2018-08-23T22:40:42.625Z,20.80
2018-08-23T22:43:11.345Z,20.80
2018-08-23T22:45:40.107Z,20.70
2018-08-23T22:48:08.893Z,20.80
2018-08-23T22:55:33.161Z,20.70
2018-08-23T22:58:02.026Z,20.80
2018-08-23T23:00:36.382Z,20.80
2018-08-23T23:03:09.321Z,20.60
2018-08-23T23:05:38.032Z,20.80
2018-08-23T23:08:09.391Z,20.70
2018-08-23T23:10:38.862Z,20.80
2018-08-23T23:13:07.741Z,20.70
2018-08-23T23:15:36.325Z,20.70
2018-08-23T23:18:05.622Z,20.70
2018-08-23T23:20:34.486Z,20.70
2018-08-23T23:23:03.397Z,20.70
2018-08-23T23:25:32.180Z,20.70
2018-08-23T23:28:00.711Z,20.60
2018-08-23T23:30:29.462Z,20.60
2018-08-23T23:32:59.115Z,20.60
2018-08-23T23:35:27.835Z,20.40
2018-08-23T23:37:56.487Z,20.40
2018-08-23T23:40:25.130Z,20.40
2018-08-23T23:42:53.820Z,20.40
2018-08-23T23:45:22.694Z,20.40
2018-08-23T23:47:51.400Z,20.30
2018-08-23T23:50:20.029Z,20.40
2018-08-23T23:52:48.674Z,20.30
2018-08-23T23:55:17.235Z,20.30
2018-08-23T23:57:45.958Z,20.30
